sensor_id;sensor_type;location;lat;lon;timestamp;P1;durP1;ratioP1;P2;durP2;ratioP2
17955;SDS011;27666;51.498;11.966;2023-04-25T00:01:22;9.07;;;5.33;;
17955;SDS011;27666;51.498;11.966;2023-04-25T00:04:09;6.90;;;5.10;;
17955;SDS011;27666;51.498;11.966;2023-04-25T00:07:00;8.53;;;4.90;;
17955;SDS011;27666;51.498;11.966;2023-04-25T00:09:47;6.90;;;5.00;;
17955;SDS011;27666;51.498;11.966;2023-04-25T00:12:34;8.80;;;5.13;;
17955;SDS011;27666;51.498;11.966;2023-04-25T00:15:20;8.43;;;5.23;;
17955;SDS011;27666;51.498;11.966;2023-04-25T00:18:09;6.60;;;4.77;;
17955;SDS011;27666;51.498;11.966;2023-04-25T00:20:56;5.60;;;5.07;;
17955;SDS011;27666;51.498;11.966;2023-04-25T00:23:42;10.30;;;5.80;;
17955;SDS011;27666;51.498;11.966;2023-04-25T00:26:30;9.83;;;5.40;;
17955;SDS011;27666;51.498;11.966;2023-04-25T00:29:16;9.80;;;5.10;;
17955;SDS011;27666;51.498;11.966;2023-04-25T00:32:03;8.10;;;5.47;;
17955;SDS011;27666;51.498;11.966;2023-04-25T00:34:51;8.67;;;5.20;;
17955;SDS011;27666;51.498;11.966;2023-04-25T00:37:38;6.20;;;5.10;;
17955;SDS011;27666;51.498;11.966;2023-04-25T00:40:24;7.37;;;4.83;;
17955;SDS011;27666;51.498;11.966;2023-04-25T00:43:11;6.67;;;4.97;;
17955;SDS011;27666;51.498;11.966;2023-04-25T00:45:58;8.33;;;4.87;;
17955;SDS011;27666;51.498;11.966;2023-04-25T00:48:45;7.03;;;5.27;;
17955;SDS011;27666;51.498;11.966;2023-04-25T00:51:34;8.33;;;5.60;;
17955;SDS011;27666;51.498;11.966;2023-04-25T00:54:21;7.60;;;5.37;;
17955;SDS011;27666;51.498;11.966;2023-04-25T00:57:08;6.73;;;5.20;;
17955;SDS011;27666;51.498;11.966;2023-04-25T00:59:55;7.73;;;5.13;;
17955;SDS011;27666;51.498;11.966;2023-04-25T01:02:42;7.60;;;5.43;;
17955;SDS011;27666;51.498;11.966;2023-04-25T01:05:31;8.63;;;5.70;;
17955;SDS011;27666;51.498;11.966;2023-04-25T01:08:18;7.90;;;5.10;;
17955;SDS011;27666;51.498;11.966;2023-04-25T01:11:07;34.80;;;18.17;;
17955;SDS011;27666;51.498;11.966;2023-04-25T01:13:54;12.50;;;7.80;;
17955;SDS011;27666;51.498;11.966;2023-04-25T01:16:42;9.43;;;5.53;;
17955;SDS011;27666;51.498;11.966;2023-04-25T01:19:29;8.60;;;5.43;;
17955;SDS011;27666;51.498;11.966;2023-04-25T01:22:18;7.63;;;5.53;;
17955;SDS011;27666;51.498;11.966;2023-04-25T01:25:06;7.37;;;5.27;;
17955;SDS011;27666;51.498;11.966;2023-04-25T01:27:53;8.07;;;5.53;;
17955;SDS011;27666;51.498;11.966;2023-04-25T01:30:40;8.13;;;5.20;;
17955;SDS011;27666;51.498;11.966;2023-04-25T01:33:27;9.90;;;6.10;;
17955;SDS011;27666;51.498;11.966;2023-04-25T01:36:15;7.83;;;5.43;;
17955;SDS011;27666;51.498;11.966;2023-04-25T01:39:03;10.37;;;5.77;;
17955;SDS011;27666;51.498;11.966;2023-04-25T01:41:51;12.03;;;5.83;;
17955;SDS011;27666;51.498;11.966;2023-04-25T01:44:38;9.33;;;5.37;;
17955;SDS011;27666;51.498;11.966;2023-04-25T01:47:24;7.13;;;5.30;;
17955;SDS011;27666;51.498;11.966;2023-04-25T01:50:11;6.83;;;5.40;;
17955;SDS011;27666;51.498;11.966;2023-04-25T01:52:57;9.27;;;6.27;;
17955;SDS011;27666;51.498;11.966;2023-04-25T01:55:46;6.10;;;4.77;;
17955;SDS011;27666;51.498;11.966;2023-04-25T01:58:32;7.37;;;4.73;;
17955;SDS011;27666;51.498;11.966;2023-04-25T02:01:19;8.93;;;4.77;;
17955;SDS011;27666;51.498;11.966;2023-04-25T02:04:05;7.33;;;5.20;;
17955;SDS011;27666;51.498;11.966;2023-04-25T02:06:52;7.10;;;4.97;;
17955;SDS011;27666;51.498;11.966;2023-04-25T02:09:39;9.70;;;4.83;;
17955;SDS011;27666;51.498;11.966;2023-04-25T02:12:26;8.37;;;4.90;;
17955;SDS011;27666;51.498;11.966;2023-04-25T02:15:13;6.73;;;4.73;;
17955;SDS011;27666;51.498;11.966;2023-04-25T02:18:00;8.43;;;4.93;;
17955;SDS011;27666;51.498;11.966;2023-04-25T02:20:46;7.23;;;4.50;;
17955;SDS011;27666;51.498;11.966;2023-04-25T02:23:33;9.97;;;5.27;;
17955;SDS011;27666;51.498;11.966;2023-04-25T02:26:20;7.57;;;4.80;;
17955;SDS011;27666;51.498;11.966;2023-04-25T02:29:10;10.43;;;4.70;;
17955;SDS011;27666;51.498;11.966;2023-04-25T02:31:56;7.50;;;4.83;;
17955;SDS011;27666;51.498;11.966;2023-04-25T02:34:43;6.00;;;4.30;;
17955;SDS011;27666;51.498;11.966;2023-04-25T02:37:29;10.47;;;4.90;;
17955;SDS011;27666;51.498;11.966;2023-04-25T02:40:16;9.47;;;5.50;;
17955;SDS011;27666;51.498;11.966;2023-04-25T02:43:03;7.83;;;4.20;;
17955;SDS011;27666;51.498;11.966;2023-04-25T02:45:51;7.20;;;5.20;;
17955;SDS011;27666;51.498;11.966;2023-04-25T02:48:37;7.37;;;5.07;;
17955;SDS011;27666;51.498;11.966;2023-04-25T02:51:24;8.00;;;4.73;;
17955;SDS011;27666;51.498;11.966;2023-04-25T02:54:11;9.60;;;4.80;;
17955;SDS011;27666;51.498;11.966;2023-04-25T02:56:57;16.53;;;5.37;;
17955;SDS011;27666;51.498;11.966;2023-04-25T02:59:44;8.43;;;4.57;;
17955;SDS011;27666;51.498;11.966;2023-04-25T03:02:31;8.40;;;4.73;;
17955;SDS011;27666;51.498;11.966;2023-04-25T03:05:19;7.13;;;4.37;;
17955;SDS011;27666;51.498;11.966;2023-04-25T03:08:05;8.60;;;4.87;;
17955;SDS011;27666;51.498;11.966;2023-04-25T03:10:52;12.03;;;4.87;;
17955;SDS011;27666;51.498;11.966;2023-04-25T03:13:40;7.23;;;4.10;;
17955;SDS011;27666;51.498;11.966;2023-04-25T03:16:26;6.97;;;4.13;;
17955;SDS011;27666;51.498;11.966;2023-04-25T03:19:14;8.40;;;4.57;;
17955;SDS011;27666;51.498;11.966;2023-04-25T03:22:02;12.40;;;4.87;;
17955;SDS011;27666;51.498;11.966;2023-04-25T03:24:48;8.97;;;4.83;;
17955;SDS011;27666;51.498;11.966;2023-04-25T03:27:35;10.67;;;4.80;;
17955;SDS011;27666;51.498;11.966;2023-04-25T03:30:22;8.23;;;4.47;;
17955;SDS011;27666;51.498;11.966;2023-04-25T03:33:08;10.63;;;4.73;;
17955;SDS011;27666;51.498;11.966;2023-04-25T03:35:57;10.23;;;4.40;;
17955;SDS011;27666;51.498;11.966;2023-04-25T03:38:43;9.13;;;4.40;;
17955;SDS011;27666;51.498;11.966;2023-04-25T03:41:30;8.07;;;4.50;;
17955;SDS011;27666;51.498;11.966;2023-04-25T03:44:16;9.07;;;5.00;;
17955;SDS011;27666;51.498;11.966;2023-04-25T03:47:03;8.63;;;5.20;;
17955;SDS011;27666;51.498;11.966;2023-04-25T03:49:50;12.03;;;6.57;;
17955;SDS011;27666;51.498;11.966;2023-04-25T03:52:38;10.23;;;5.47;;
17955;SDS011;27666;51.498;11.966;2023-04-25T03:55:24;12.90;;;4.43;;
17955;SDS011;27666;51.498;11.966;2023-04-25T03:58:11;13.47;;;5.30;;
17955;SDS011;27666;51.498;11.966;2023-04-25T04:00:57;10.27;;;5.00;;
17955;SDS011;27666;51.498;11.966;2023-04-25T04:03:44;11.20;;;4.57;;
17955;SDS011;27666;51.498;11.966;2023-04-25T04:06:31;18.63;;;5.67;;
17955;SDS011;27666;51.498;11.966;2023-04-25T04:09:20;8.27;;;5.03;;
17955;SDS011;27666;51.498;11.966;2023-04-25T04:12:06;13.23;;;4.90;;
17955;SDS011;27666;51.498;11.966;2023-04-25T04:14:53;9.20;;;5.30;;
17955;SDS011;27666;51.498;11.966;2023-04-25T04:17:39;8.87;;;4.73;;
17955;SDS011;27666;51.498;11.966;2023-04-25T04:20:26;11.47;;;5.13;;
17955;SDS011;27666;51.498;11.966;2023-04-25T04:23:12;14.57;;;5.87;;
17955;SDS011;27666;51.498;11.966;2023-04-25T04:26:00;10.80;;;5.07;;
17955;SDS011;27666;51.498;11.966;2023-04-25T04:28:47;9.43;;;5.00;;
17955;SDS011;27666;51.498;11.966;2023-04-25T04:31:35;11.80;;;4.90;;
17955;SDS011;27666;51.498;11.966;2023-04-25T04:34:21;8.57;;;4.70;;
17955;SDS011;27666;51.498;11.966;2023-04-25T04:37:09;10.50;;;5.47;;
17955;SDS011;27666;51.498;11.966;2023-04-25T04:39:58;17.63;;;7.10;;
17955;SDS011;27666;51.498;11.966;2023-04-25T04:42:45;10.93;;;5.20;;
17955;SDS011;27666;51.498;11.966;2023-04-25T04:45:33;15.97;;;5.80;;
17955;SDS011;27666;51.498;11.966;2023-04-25T04:48:19;16.47;;;5.97;;
17955;SDS011;27666;51.498;11.966;2023-04-25T04:51:06;14.03;;;5.60;;
17955;SDS011;27666;51.498;11.966;2023-04-25T04:53:53;15.50;;;7.17;;
17955;SDS011;27666;51.498;11.966;2023-04-25T04:56:42;23.47;;;11.00;;
17955;SDS011;27666;51.498;11.966;2023-04-25T04:59:31;23.70;;;11.13;;
17955;SDS011;27666;51.498;11.966;2023-04-25T05:02:17;24.37;;;12.13;;
17955;SDS011;27666;51.498;11.966;2023-04-25T05:05:04;16.33;;;9.23;;
17955;SDS011;27666;51.498;11.966;2023-04-25T05:07:51;10.10;;;6.53;;
17955;SDS011;27666;51.498;11.966;2023-04-25T05:10:37;21.93;;;11.97;;
17955;SDS011;27666;51.498;11.966;2023-04-25T05:13:24;17.47;;;7.73;;
17955;SDS011;27666;51.498;11.966;2023-04-25T05:16:12;18.60;;;8.87;;
17955;SDS011;27666;51.498;11.966;2023-04-25T05:18:59;24.10;;;10.27;;
17955;SDS011;27666;51.498;11.966;2023-04-25T05:21:45;22.40;;;17.17;;
17955;SDS011;27666;51.498;11.966;2023-04-25T05:24:32;22.45;;;11.38;;
17955;SDS011;27666;51.498;11.966;2023-04-25T05:27:19;19.88;;;7.13;;
17955;SDS011;27666;51.498;11.966;2023-04-25T05:30:06;15.98;;;7.35;;
17955;SDS011;27666;51.498;11.966;2023-04-25T05:32:55;13.57;;;6.15;;
17955;SDS011;27666;51.498;11.966;2023-04-25T05:35:42;10.10;;;6.57;;
17955;SDS011;27666;51.498;11.966;2023-04-25T05:38:28;8.45;;;5.35;;
17955;SDS011;27666;51.498;11.966;2023-04-25T05:41:18;13.30;;;5.55;;
17955;SDS011;27666;51.498;11.966;2023-04-25T05:44:04;12.48;;;5.43;;
17955;SDS011;27666;51.498;11.966;2023-04-25T05:46:51;9.60;;;5.97;;
17955;SDS011;27666;51.498;11.966;2023-04-25T05:49:39;9.93;;;5.90;;
17955;SDS011;27666;51.498;11.966;2023-04-25T05:52:26;7.70;;;5.20;;
17955;SDS011;27666;51.498;11.966;2023-04-25T05:55:12;9.80;;;5.20;;
17955;SDS011;27666;51.498;11.966;2023-04-25T05:58:00;6.82;;;5.25;;
17955;SDS011;27666;51.498;11.966;2023-04-25T06:00:46;12.55;;;5.63;;
17955;SDS011;27666;51.498;11.966;2023-04-25T06:03:33;8.73;;;4.60;;
17955;SDS011;27666;51.498;11.966;2023-04-25T06:06:23;12.63;;;6.00;;
17955;SDS011;27666;51.498;11.966;2023-04-25T06:09:10;13.75;;;5.75;;
17955;SDS011;27666;51.498;11.966;2023-04-25T06:11:58;9.80;;;5.63;;
17955;SDS011;27666;51.498;11.966;2023-04-25T06:14:45;11.82;;;5.70;;
17955;SDS011;27666;51.498;11.966;2023-04-25T06:17:32;9.65;;;5.63;;
17955;SDS011;27666;51.498;11.966;2023-04-25T06:20:20;16.33;;;6.07;;
17955;SDS011;27666;51.498;11.966;2023-04-25T06:23:09;11.40;;;6.00;;
17955;SDS011;27666;51.498;11.966;2023-04-25T06:25:56;12.25;;;5.63;;
17955;SDS011;27666;51.498;11.966;2023-04-25T06:28:43;18.60;;;6.50;;
17955;SDS011;27666;51.498;11.966;2023-04-25T06:31:29;23.00;;;6.55;;
17955;SDS011;27666;51.498;11.966;2023-04-25T06:34:17;14.55;;;5.70;;
17955;SDS011;27666;51.498;11.966;2023-04-25T06:37:04;7.03;;;5.20;;
17955;SDS011;27666;51.498;11.966;2023-04-25T06:39:51;9.40;;;5.72;;
17955;SDS011;27666;51.498;11.966;2023-04-25T06:42:38;11.27;;;5.68;;
17955;SDS011;27666;51.498;11.966;2023-04-25T06:45:24;17.05;;;5.40;;
17955;SDS011;27666;51.498;11.966;2023-04-25T06:48:11;18.63;;;6.63;;
17955;SDS011;27666;51.498;11.966;2023-04-25T06:50:57;14.52;;;5.80;;
17955;SDS011;27666;51.498;11.966;2023-04-25T06:53:43;12.27;;;5.68;;
17955;SDS011;27666;51.498;11.966;2023-04-25T06:56:31;10.30;;;5.05;;
17955;SDS011;27666;51.498;11.966;2023-04-25T06:59:18;19.80;;;5.70;;
17955;SDS011;27666;51.498;11.966;2023-04-25T07:02:04;7.88;;;4.30;;
17955;SDS011;27666;51.498;11.966;2023-04-25T07:04:51;8.50;;;3.83;;
17955;SDS011;27666;51.498;11.966;2023-04-25T07:07:38;9.98;;;3.40;;
17955;SDS011;27666;51.498;11.966;2023-04-25T07:10:25;7.35;;;3.15;;
17955;SDS011;27666;51.498;11.966;2023-04-25T07:13:13;6.47;;;2.58;;
17955;SDS011;27666;51.498;11.966;2023-04-25T07:15:59;5.45;;;2.75;;
17955;SDS011;27666;51.498;11.966;2023-04-25T07:18:46;7.15;;;2.58;;
17955;SDS011;27666;51.498;11.966;2023-04-25T07:21:33;6.13;;;3.03;;
17955;SDS011;27666;51.498;11.966;2023-04-25T07:24:21;4.75;;;2.63;;
17955;SDS011;27666;51.498;11.966;2023-04-25T07:27:07;9.63;;;2.90;;
17955;SDS011;27666;51.498;11.966;2023-04-25T07:29:56;6.38;;;3.08;;
17955;SDS011;27666;51.498;11.966;2023-04-25T07:32:42;13.10;;;3.55;;
17955;SDS011;27666;51.498;11.966;2023-04-25T07:35:30;7.88;;;3.85;;
17955;SDS011;27666;51.498;11.966;2023-04-25T07:38:17;5.72;;;2.97;;
17955;SDS011;27666;51.498;11.966;2023-04-25T07:41:03;8.20;;;3.45;;
17955;SDS011;27666;51.498;11.966;2023-04-25T07:43:50;8.57;;;2.90;;
17955;SDS011;27666;51.498;11.966;2023-04-25T07:46:37;10.85;;;3.40;;
17955;SDS011;27666;51.498;11.966;2023-04-25T07:49:24;11.80;;;3.30;;
17955;SDS011;27666;51.498;11.966;2023-04-25T07:52:10;13.07;;;3.13;;
17955;SDS011;27666;51.498;11.966;2023-04-25T07:54:57;6.70;;;3.05;;
17955;SDS011;27666;51.498;11.966;2023-04-25T07:57:45;10.93;;;3.33;;
17955;SDS011;27666;51.498;11.966;2023-04-25T08:00:31;5.05;;;2.85;;
17955;SDS011;27666;51.498;11.966;2023-04-25T08:03:19;8.10;;;3.30;;
17955;SDS011;27666;51.498;11.966;2023-04-25T08:06:06;10.25;;;3.53;;
17955;SDS011;27666;51.498;11.966;2023-04-25T08:08:56;6.15;;;3.08;;
17955;SDS011;27666;51.498;11.966;2023-04-25T08:11:42;8.73;;;3.13;;
17955;SDS011;27666;51.498;11.966;2023-04-25T08:14:29;8.10;;;3.10;;
17955;SDS011;27666;51.498;11.966;2023-04-25T08:17:20;11.18;;;2.95;;
17955;SDS011;27666;51.498;11.966;2023-04-25T08:20:08;6.55;;;3.35;;
17955;SDS011;27666;51.498;11.966;2023-04-25T08:22:55;7.32;;;3.15;;
17955;SDS011;27666;51.498;11.966;2023-04-25T08:25:42;9.85;;;3.30;;
17955;SDS011;27666;51.498;11.966;2023-04-25T08:28:28;16.25;;;4.78;;
17955;SDS011;27666;51.498;11.966;2023-04-25T08:31:14;16.42;;;3.60;;
17955;SDS011;27666;51.498;11.966;2023-04-25T08:34:01;17.15;;;4.32;;
17955;SDS011;27666;51.498;11.966;2023-04-25T08:36:49;10.95;;;3.58;;
17955;SDS011;27666;51.498;11.966;2023-04-25T08:39:36;6.50;;;3.55;;
17955;SDS011;27666;51.498;11.966;2023-04-25T08:42:23;14.40;;;3.78;;
17955;SDS011;27666;51.498;11.966;2023-04-25T08:45:12;15.55;;;4.43;;
17955;SDS011;27666;51.498;11.966;2023-04-25T08:47:59;15.80;;;3.88;;
17955;SDS011;27666;51.498;11.966;2023-04-25T08:50:51;9.75;;;3.72;;
17955;SDS011;27666;51.498;11.966;2023-04-25T08:53:40;14.57;;;4.45;;
17955;SDS011;27666;51.498;11.966;2023-04-25T08:56:30;24.87;;;6.47;;
17955;SDS011;27666;51.498;11.966;2023-04-25T08:59:19;18.70;;;5.00;;
17955;SDS011;27666;51.498;11.966;2023-04-25T09:02:08;15.30;;;5.67;;
17955;SDS011;27666;51.498;11.966;2023-04-25T09:04:59;18.13;;;4.80;;
17955;SDS011;27666;51.498;11.966;2023-04-25T09:07:46;15.77;;;4.57;;
17955;SDS011;27666;51.498;11.966;2023-04-25T09:10:35;20.97;;;5.73;;
17955;SDS011;27666;51.498;11.966;2023-04-25T09:13:24;18.80;;;5.72;;
17955;SDS011;27666;51.498;11.966;2023-04-25T09:16:11;16.52;;;5.43;;
17955;SDS011;27666;51.498;11.966;2023-04-25T09:19:02;11.10;;;4.47;;
17955;SDS011;27666;51.498;11.966;2023-04-25T09:21:49;25.73;;;5.82;;
17955;SDS011;27666;51.498;11.966;2023-04-25T09:24:36;16.58;;;4.78;;
17955;SDS011;27666;51.498;11.966;2023-04-25T09:27:24;14.93;;;5.35;;
17955;SDS011;27666;51.498;11.966;2023-04-25T09:30:13;10.80;;;5.03;;
17955;SDS011;27666;51.498;11.966;2023-04-25T09:33:05;15.30;;;5.43;;
17955;SDS011;27666;51.498;11.966;2023-04-25T09:35:52;11.10;;;5.65;;
17955;SDS011;27666;51.498;11.966;2023-04-25T09:38:41;10.60;;;5.60;;
17955;SDS011;27666;51.498;11.966;2023-04-25T09:41:29;13.45;;;5.50;;
17955;SDS011;27666;51.498;11.966;2023-04-25T09:44:19;13.10;;;5.95;;
17955;SDS011;27666;51.498;11.966;2023-04-25T09:47:09;10.65;;;5.63;;
17955;SDS011;27666;51.498;11.966;2023-04-25T09:49:57;15.13;;;5.03;;
17955;SDS011;27666;51.498;11.966;2023-04-25T09:52:46;18.77;;;5.32;;
17955;SDS011;27666;51.498;11.966;2023-04-25T09:55:49;10.27;;;4.38;;
17955;SDS011;27666;51.498;11.966;2023-04-25T09:58:37;12.75;;;4.20;;
17955;SDS011;27666;51.498;11.966;2023-04-25T10:01:25;10.88;;;4.72;;
17955;SDS011;27666;51.498;11.966;2023-04-25T10:04:13;9.48;;;4.18;;
17955;SDS011;27666;51.498;11.966;2023-04-25T10:07:05;12.23;;;4.45;;
17955;SDS011;27666;51.498;11.966;2023-04-25T10:09:54;11.57;;;5.20;;
17955;SDS011;27666;51.498;11.966;2023-04-25T10:12:45;11.47;;;4.63;;
17955;SDS011;27666;51.498;11.966;2023-04-25T10:15:32;13.40;;;4.43;;
17955;SDS011;27666;51.498;11.966;2023-04-25T10:18:26;9.13;;;4.00;;
17955;SDS011;27666;51.498;11.966;2023-04-25T10:21:13;13.75;;;4.80;;
17955;SDS011;27666;51.498;11.966;2023-04-25T10:24:01;14.00;;;4.87;;
17955;SDS011;27666;51.498;11.966;2023-04-25T10:26:48;11.90;;;5.20;;
17955;SDS011;27666;51.498;11.966;2023-04-25T10:29:35;11.43;;;5.07;;
17955;SDS011;27666;51.498;11.966;2023-04-25T10:32:22;15.83;;;4.70;;
17955;SDS011;27666;51.498;11.966;2023-04-25T10:35:11;11.27;;;4.73;;
17955;SDS011;27666;51.498;11.966;2023-04-25T10:38:00;9.17;;;4.87;;
17955;SDS011;27666;51.498;11.966;2023-04-25T10:41:02;15.73;;;5.20;;
17955;SDS011;27666;51.498;11.966;2023-04-25T10:43:49;9.27;;;4.30;;
17955;SDS011;27666;51.498;11.966;2023-04-25T10:46:46;10.73;;;4.43;;
17955;SDS011;27666;51.498;11.966;2023-04-25T10:49:33;10.33;;;4.00;;
17955;SDS011;27666;51.498;11.966;2023-04-25T10:52:26;21.27;;;4.73;;
17955;SDS011;27666;51.498;11.966;2023-04-25T10:55:14;19.60;;;4.47;;
17955;SDS011;27666;51.498;11.966;2023-04-25T10:58:00;9.50;;;3.73;;
17955;SDS011;27666;51.498;11.966;2023-04-25T11:00:47;9.50;;;3.90;;
17955;SDS011;27666;51.498;11.966;2023-04-25T11:03:42;12.53;;;3.77;;
17955;SDS011;27666;51.498;11.966;2023-04-25T11:06:32;11.97;;;3.40;;
17955;SDS011;27666;51.498;11.966;2023-04-25T11:09:29;7.70;;;3.13;;
17955;SDS011;27666;51.498;11.966;2023-04-25T11:12:15;7.47;;;3.33;;
17955;SDS011;27666;51.498;11.966;2023-04-25T11:15:05;8.90;;;3.07;;
17955;SDS011;27666;51.498;11.966;2023-04-25T11:17:53;9.13;;;3.33;;
17955;SDS011;27666;51.498;11.966;2023-04-25T11:20:41;8.90;;;3.23;;
17955;SDS011;27666;51.498;11.966;2023-04-25T11:23:29;12.77;;;3.63;;
17955;SDS011;27666;51.498;11.966;2023-04-25T11:26:17;14.23;;;3.23;;
17955;SDS011;27666;51.498;11.966;2023-04-25T11:29:05;10.25;;;3.60;;
17955;SDS011;27666;51.498;11.966;2023-04-25T11:31:52;7.32;;;3.10;;
17955;SDS011;27666;51.498;11.966;2023-04-25T11:34:42;10.20;;;3.03;;
17955;SDS011;27666;51.498;11.966;2023-04-25T11:37:29;6.95;;;3.63;;
17955;SDS011;27666;51.498;11.966;2023-04-25T11:40:15;13.10;;;2.92;;
17955;SDS011;27666;51.498;11.966;2023-04-25T11:43:04;8.20;;;2.95;;
17955;SDS011;27666;51.498;11.966;2023-04-25T11:45:50;6.72;;;3.10;;
17955;SDS011;27666;51.498;11.966;2023-04-25T11:48:38;12.40;;;2.85;;
17955;SDS011;27666;51.498;11.966;2023-04-25T11:51:24;15.43;;;3.50;;
17955;SDS011;27666;51.498;11.966;2023-04-25T11:54:12;10.10;;;3.03;;
17955;SDS011;27666;51.498;11.966;2023-04-25T11:56:59;10.98;;;3.13;;
17955;SDS011;27666;51.498;11.966;2023-04-25T11:59:47;6.90;;;3.22;;
17955;SDS011;27666;51.498;11.966;2023-04-25T12:02:34;6.72;;;2.85;;
17955;SDS011;27666;51.498;11.966;2023-04-25T12:05:23;5.88;;;2.83;;
17955;SDS011;27666;51.498;11.966;2023-04-25T12:08:18;6.80;;;2.40;;
17955;SDS011;27666;51.498;11.966;2023-04-25T12:11:04;3.25;;;2.55;;
17955;SDS011;27666;51.498;11.966;2023-04-25T12:13:51;7.37;;;2.80;;
17955;SDS011;27666;51.498;11.966;2023-04-25T12:16:43;7.68;;;2.67;;
17955;SDS011;27666;51.498;11.966;2023-04-25T12:19:31;5.30;;;3.20;;
17955;SDS011;27666;51.498;11.966;2023-04-25T12:22:19;5.80;;;2.70;;
17955;SDS011;27666;51.498;11.966;2023-04-25T12:25:07;10.93;;;3.17;;
17955;SDS011;27666;51.498;11.966;2023-04-25T12:27:54;6.90;;;2.70;;
17955;SDS011;27666;51.498;11.966;2023-04-25T12:30:53;6.80;;;2.77;;
17955;SDS011;27666;51.498;11.966;2023-04-25T12:33:44;4.23;;;2.67;;
17955;SDS011;27666;51.498;11.966;2023-04-25T12:36:32;4.00;;;2.57;;
17955;SDS011;27666;51.498;11.966;2023-04-25T12:39:20;7.60;;;2.70;;
17955;SDS011;27666;51.498;11.966;2023-04-25T12:42:08;7.73;;;2.77;;
17955;SDS011;27666;51.498;11.966;2023-04-25T12:44:56;5.23;;;2.50;;
17955;SDS011;27666;51.498;11.966;2023-04-25T12:47:42;6.37;;;2.77;;
17955;SDS011;27666;51.498;11.966;2023-04-25T12:50:30;7.70;;;2.90;;
17955;SDS011;27666;51.498;11.966;2023-04-25T12:53:17;5.17;;;2.67;;
17955;SDS011;27666;51.498;11.966;2023-04-25T12:56:05;8.65;;;3.78;;
17955;SDS011;27666;51.498;11.966;2023-04-25T12:58:52;7.68;;;3.00;;
17955;SDS011;27666;51.498;11.966;2023-04-25T13:01:39;7.88;;;2.65;;
17955;SDS011;27666;51.498;11.966;2023-04-25T13:04:26;5.73;;;3.47;;
17955;SDS011;27666;51.498;11.966;2023-04-25T13:07:14;6.43;;;3.53;;
17955;SDS011;27666;51.498;11.966;2023-04-25T13:10:01;10.07;;;2.70;;
17955;SDS011;27666;51.498;11.966;2023-04-25T13:12:48;5.13;;;2.42;;
17955;SDS011;27666;51.498;11.966;2023-04-25T13:15:35;13.82;;;3.15;;
17955;SDS011;27666;51.498;11.966;2023-04-25T13:18:25;7.43;;;3.22;;
17955;SDS011;27666;51.498;11.966;2023-04-25T13:21:12;5.80;;;2.60;;
17955;SDS011;27666;51.498;11.966;2023-04-25T13:23:59;6.27;;;2.47;;
17955;SDS011;27666;51.498;11.966;2023-04-25T13:26:46;6.87;;;2.50;;
17955;SDS011;27666;51.498;11.966;2023-04-25T13:29:32;4.73;;;2.80;;
17955;SDS011;27666;51.498;11.966;2023-04-25T13:32:20;2.50;;;2.30;;
17955;SDS011;27666;51.498;11.966;2023-04-25T13:35:07;4.33;;;2.93;;
17955;SDS011;27666;51.498;11.966;2023-04-25T13:37:56;11.13;;;2.97;;
17955;SDS011;27666;51.498;11.966;2023-04-25T13:40:43;8.90;;;2.97;;
17955;SDS011;27666;51.498;11.966;2023-04-25T13:43:30;15.15;;;3.40;;
17955;SDS011;27666;51.498;11.966;2023-04-25T13:46:18;7.38;;;2.70;;
17955;SDS011;27666;51.498;11.966;2023-04-25T13:49:24;6.18;;;2.20;;
17955;SDS011;27666;51.498;11.966;2023-04-25T13:52:11;5.25;;;2.70;;
17955;SDS011;27666;51.498;11.966;2023-04-25T13:54:57;6.70;;;2.65;;
17955;SDS011;27666;51.498;11.966;2023-04-25T13:57:46;3.47;;;2.40;;
17955;SDS011;27666;51.498;11.966;2023-04-25T14:00:35;4.88;;;2.15;;
17955;SDS011;27666;51.498;11.966;2023-04-25T14:03:23;4.35;;;2.10;;
17955;SDS011;27666;51.498;11.966;2023-04-25T14:06:10;9.02;;;3.50;;
17955;SDS011;27666;51.498;11.966;2023-04-25T14:08:57;6.53;;;2.45;;
17955;SDS011;27666;51.498;11.966;2023-04-25T14:11:45;3.37;;;2.23;;
17955;SDS011;27666;51.498;11.966;2023-04-25T14:14:32;5.07;;;2.22;;
17955;SDS011;27666;51.498;11.966;2023-04-25T14:17:19;7.33;;;3.03;;
17955;SDS011;27666;51.498;11.966;2023-04-25T14:20:06;6.93;;;2.53;;
17955;SDS011;27666;51.498;11.966;2023-04-25T14:22:55;6.30;;;2.70;;
17955;SDS011;27666;51.498;11.966;2023-04-25T14:25:43;5.63;;;3.30;;
17955;SDS011;27666;51.498;11.966;2023-04-25T14:28:29;10.27;;;3.20;;
17955;SDS011;27666;51.498;11.966;2023-04-25T14:31:17;5.47;;;2.47;;
17955;SDS011;27666;51.498;11.966;2023-04-25T14:34:04;6.47;;;2.30;;
17955;SDS011;27666;51.498;11.966;2023-04-25T14:36:51;7.43;;;2.67;;
17955;SDS011;27666;51.498;11.966;2023-04-25T14:39:37;4.43;;;2.70;;
17955;SDS011;27666;51.498;11.966;2023-04-25T14:42:24;9.17;;;2.70;;
17955;SDS011;27666;51.498;11.966;2023-04-25T14:45:11;10.17;;;3.00;;
17955;SDS011;27666;51.498;11.966;2023-04-25T14:47:59;8.83;;;2.80;;
17955;SDS011;27666;51.498;11.966;2023-04-25T14:50:46;10.10;;;4.72;;
17955;SDS011;27666;51.498;11.966;2023-04-25T14:53:32;6.43;;;3.00;;
17955;SDS011;27666;51.498;11.966;2023-04-25T14:56:19;10.00;;;2.53;;
17955;SDS011;27666;51.498;11.966;2023-04-25T14:59:05;8.33;;;3.30;;
17955;SDS011;27666;51.498;11.966;2023-04-25T15:01:52;5.40;;;2.63;;
17955;SDS011;27666;51.498;11.966;2023-04-25T15:04:42;23.50;;;11.68;;
17955;SDS011;27666;51.498;11.966;2023-04-25T15:07:30;9.20;;;4.22;;
17955;SDS011;27666;51.498;11.966;2023-04-25T15:10:16;8.60;;;2.70;;
17955;SDS011;27666;51.498;11.966;2023-04-25T15:13:04;3.73;;;2.53;;
17955;SDS011;27666;51.498;11.966;2023-04-25T15:15:51;3.83;;;2.63;;
17955;SDS011;27666;51.498;11.966;2023-04-25T15:18:39;7.82;;;3.03;;
17955;SDS011;27666;51.498;11.966;2023-04-25T15:21:26;10.70;;;2.80;;
17955;SDS011;27666;51.498;11.966;2023-04-25T15:24:13;5.37;;;2.70;;
17955;SDS011;27666;51.498;11.966;2023-04-25T15:27:00;6.23;;;2.93;;
17955;SDS011;27666;51.498;11.966;2023-04-25T15:29:47;7.43;;;2.80;;
17955;SDS011;27666;51.498;11.966;2023-04-25T15:32:33;10.00;;;3.00;;
17955;SDS011;27666;51.498;11.966;2023-04-25T15:35:20;5.00;;;2.50;;
17955;SDS011;27666;51.498;11.966;2023-04-25T15:38:08;4.53;;;2.70;;
17955;SDS011;27666;51.498;11.966;2023-04-25T15:40:56;5.57;;;2.57;;
17955;SDS011;27666;51.498;11.966;2023-04-25T15:43:42;6.57;;;3.10;;
17955;SDS011;27666;51.498;11.966;2023-04-25T15:46:29;5.73;;;3.83;;
17955;SDS011;27666;51.498;11.966;2023-04-25T15:49:16;3.67;;;2.43;;
17955;SDS011;27666;51.498;11.966;2023-04-25T15:52:05;9.63;;;2.70;;
17955;SDS011;27666;51.498;11.966;2023-04-25T15:54:53;5.97;;;3.10;;
17955;SDS011;27666;51.498;11.966;2023-04-25T15:57:40;6.87;;;2.40;;
17955;SDS011;27666;51.498;11.966;2023-04-25T16:00:26;7.73;;;2.60;;
17955;SDS011;27666;51.498;11.966;2023-04-25T16:03:13;8.70;;;2.83;;
17955;SDS011;27666;51.498;11.966;2023-04-25T16:06:00;11.03;;;2.80;;
17955;SDS011;27666;51.498;11.966;2023-04-25T16:08:47;7.23;;;2.90;;
17955;SDS011;27666;51.498;11.966;2023-04-25T16:11:34;4.90;;;2.97;;
17955;SDS011;27666;51.498;11.966;2023-04-25T16:14:21;8.63;;;4.07;;
17955;SDS011;27666;51.498;11.966;2023-04-25T16:17:08;5.87;;;3.03;;
17955;SDS011;27666;51.498;11.966;2023-04-25T16:19:54;6.47;;;2.73;;
17955;SDS011;27666;51.498;11.966;2023-04-25T16:22:43;9.83;;;2.67;;
17955;SDS011;27666;51.498;11.966;2023-04-25T16:25:29;6.97;;;3.00;;
17955;SDS011;27666;51.498;11.966;2023-04-25T16:28:17;7.53;;;2.77;;